Time;durP1;ratioP1;P1;durP2;ratioP2;P2;SDS_P1;SDS_P2;PMS_P1;PMS_P2;Temp;Humidity;BMP_temperature;BMP_pressure;BME280_temperature;BME280_humidity;BME280_pressure;Samples;Min_cycle;Max_cycle;Signal;HPM_P1;HPM_P2
2022/01/08 00:01:58;;;;;;;;;1.00;0.00;;;;;7.73;63.09;100982.69;5043645;28;45311;-52
2022/01/08 00:04:24;;;;;;;;;0.00;0.00;;;;;7.68;63.41;100989.69;5040481;28;46023;-50
2022/01/08 00:06:49;;;;;;;;;0.00;0.00;;;;;7.68;63.23;100984.44;5040252;28;45268;-49
2022/01/08 00:09:14;;;;;;;;;0.00;0.00;;;;;7.69;63.41;100995.81;5040570;28;45233;-51
2022/01/08 00:11:42;;;;;;;;;0.00;0.00;;;;;7.68;63.36;100991.44;5040232;28;45167;-49
2022/01/08 00:14:09;;;;;;;;;0.50;0.00;;;;;7.61;63.18;100999.25;5040330;28;45356;-52
2022/01/08 00:16:37;;;;;;;;;0.00;0.00;;;;;7.63;63.28;101013.22;5040191;28;45475;-52
2022/01/08 00:19:03;;;;;;;;;0.50;0.50;;;;;7.61;63.21;101024.53;5022542;28;45322;-51
2022/01/08 00:21:28;;;;;;;;;0.00;0.00;;;;;7.57;63.11;101028.91;5037108;28;46325;-52
2022/01/08 00:23:54;;;;;;;;;1.00;0.00;;;;;7.56;63.01;101035.00;5040024;28;45296;-52
2022/01/08 00:26:19;;;;;;;;;0.00;0.00;;;;;7.50;63.02;101024.53;5055742;28;45286;-52
2022/01/08 00:28:44;;;;;;;;;1.00;1.00;;;;;7.49;63.21;101036.69;5030912;28;45316;-52
2022/01/08 00:31:10;;;;;;;;;0.00;0.00;;;;;7.47;63.16;101043.69;5049818;28;45457;-52
2022/01/08 00:33:39;;;;;;;;;2.00;0.00;;;;;7.43;63.07;101044.56;5049385;28;46821;-52
2022/01/08 00:36:08;;;;;;;;;0.00;0.00;;;;;7.41;62.92;101051.50;5041233;28;45386;-53
2022/01/08 00:38:34;;;;;;;;;1.50;0.00;;;;;7.37;63.07;101060.22;5039940;28;45214;-53
2022/01/08 00:40:59;;;;;;;;;0.00;0.00;;;;;7.35;62.89;101050.63;5039784;28;45266;-49
2022/01/08 00:43:25;;;;;;;;;2.00;0.00;;;;;7.32;62.96;101051.47;5039458;28;46027;-52
2022/01/08 00:45:51;;;;;;;;;0.00;0.00;;;;;7.28;62.89;101054.94;5053200;28;45177;-52
2022/01/08 00:48:16;;;;;;;;;0.50;0.50;;;;;7.23;62.72;101054.94;5039949;28;45303;-53
2022/01/08 00:50:41;;;;;;;;;1.00;0.00;;;;;7.19;62.78;101068.81;5040150;28;45332;-50
2022/01/08 00:53:07;;;;;;;;;1.00;0.00;;;;;7.16;63.04;101074.06;5021858;28;45977;-51
2022/01/08 00:55:32;;;;;;;;;0.25;0.25;;;;;7.11;63.11;101081.88;5039512;28;45464;-53
2022/01/08 00:57:58;;;;;;;;;2.00;2.00;;;;;7.07;62.97;101087.06;5040020;28;45422;-53
2022/01/08 01:00:23;;;;;;;;;0.25;0.25;;;;;7.02;62.89;101087.06;5039422;28;45333;-49
2022/01/08 01:02:49;;;;;;;;;2.75;1.00;;;;;7.00;62.84;101094.84;5039691;28;45424;-53
2022/01/08 01:05:15;;;;;;;;;1.50;1.25;;;;;6.98;63.04;101100.94;5039073;28;45349;-49
2022/01/08 01:07:40;;;;;;;;;1.00;1.00;;;;;6.95;62.89;101111.38;5039753;28;45391;-51
2022/01/08 01:10:08;;;;;;;;;0.00;0.00;;;;;6.92;62.88;101112.25;5037876;28;45372;-53
2022/01/08 01:12:35;;;;;;;;;3.50;0.25;;;;;6.92;62.85;101108.75;5040366;28;46887;-50
2022/01/08 01:15:00;;;;;;;;;0.25;0.25;;;;;6.90;62.79;101110.47;5040048;28;45341;-49
2022/01/08 01:17:26;;;;;;;;;0.00;0.00;;;;;6.89;63.00;101106.97;5062441;28;45170;-50
2022/01/08 01:19:51;;;;;;;;;0.00;0.00;;;;;6.87;62.88;101106.13;5060734;28;45312;-49
2022/01/08 01:22:20;;;;;;;;;1.50;1.00;;;;;6.85;63.11;101106.97;5047519;28;46110;-53
2022/01/08 01:24:47;;;;;;;;;0.00;0.00;;;;;6.87;62.83;101113.06;5038988;28;45344;-54
2022/01/08 01:43:29;;;;;;;;;1.00;0.00;;;;;6.73;63.22;101103.41;5038824;28;45447;-53
2022/01/08 01:48:38;;;;;;;;;1.00;1.00;;;;;6.72;63.06;101099.03;5042412;28;45443;-52
2022/01/08 01:51:03;;;;;;;;;0.75;0.75;;;;;6.71;63.25;101097.28;5050276;28;45747;-51
2022/01/08 01:53:29;;;;;;;;;1.25;1.25;;;;;6.70;63.13;101098.13;5075963;28;45370;-52
2022/01/08 01:55:54;;;;;;;;;0.75;0.75;;;;;6.70;63.02;101105.97;5055567;28;45366;-52
2022/01/08 01:58:20;;;;;;;;;1.00;1.00;;;;;6.71;63.20;101109.47;5042657;28;45467;-52
2022/01/08 02:00:49;;;;;;;;;1.00;1.00;;;;;6.72;63.08;101112.09;5042483;28;45563;-53
2022/01/08 02:03:14;;;;;;;;;1.50;1.50;;;;;6.73;62.89;101112.97;5042295;28;45885;-50
2022/01/08 02:05:40;;;;;;;;;1.00;1.00;;;;;6.71;63.13;101125.16;5042202;28;45416;-49
2022/01/08 02:08:05;;;;;;;;;0.50;0.50;;;;;6.70;63.21;101126.88;5042459;28;45297;-48
2022/01/08 02:10:31;;;;;;;;;0.50;0.50;;;;;6.70;63.03;101123.41;5042064;28;45419;-48
2022/01/08 02:12:56;;;;;;;;;1.00;1.00;;;;;6.71;62.83;101110.34;5042105;28;45250;-50
2022/01/08 02:15:21;;;;;;;;;1.00;1.00;;;;;6.71;63.00;101104.25;5042550;28;45427;-49
2022/01/08 02:17:47;;;;;;;;;1.00;1.00;;;;;6.70;63.03;101108.59;5042250;28;45329;-50
2022/01/08 02:20:13;;;;;;;;;2.00;2.00;;;;;6.69;62.89;101114.66;5050934;28;45304;-51
2022/01/08 02:22:38;;;;;;;;;1.00;1.00;;;;;6.70;63.00;101112.94;5047795;28;45795;-51
2022/01/08 02:25:04;;;;;;;;;1.00;1.00;;;;;6.69;62.89;101121.63;5046089;28;46437;-50
2022/01/08 02:27:30;;;;;;;;;1.00;1.00;;;;;6.67;62.82;101132.09;5061360;28;45559;-51
2022/01/08 02:29:55;;;;;;;;;0.75;0.00;;;;;6.70;62.75;101136.47;5041993;28;45384;-51
2022/01/08 02:32:26;;;;;;;;;1.00;1.00;;;;;6.67;62.86;101134.69;5041768;28;46249;-51
2022/01/08 02:34:51;;;;;;;;;2.50;2.00;;;;;6.66;62.82;101141.63;5041837;28;45312;-50
2022/01/08 02:37:19;;;;;;;;;0.50;0.50;;;;;6.66;62.96;101143.38;5041742;28;45344;-49
2022/01/08 02:39:48;;;;;;;;;4.75;1.75;;;;;6.66;63.16;101143.38;5041681;28;45380;-51
2022/01/08 02:42:17;;;;;;;;;1.50;1.00;;;;;6.65;62.84;101136.41;5041320;28;45162;-51
2022/01/08 02:44:44;;;;;;;;;1.50;1.00;;;;;6.64;62.89;101130.31;5049820;28;45296;-49
2022/01/08 02:47:13;;;;;;;;;1.00;1.00;;;;;6.66;62.72;101146.84;5046857;28;45383;-51
2022/01/08 02:49:38;;;;;;;;;1.00;1.00;;;;;6.66;62.85;101146.00;5041465;28;45440;-51
2022/01/08 02:52:04;;;;;;;;;0.50;0.00;;;;;6.63;62.79;101144.25;5055363;28;46011;-51
2022/01/08 02:54:30;;;;;;;;;2.00;2.00;;;;;6.61;62.85;101137.25;5041584;28;45314;-51
2022/01/08 02:56:55;;;;;;;;;0.50;0.50;;;;;6.57;62.91;101127.66;5039504;28;45362;-51
2022/01/08 02:59:21;;;;;;;;;2.00;1.00;;;;;6.58;62.74;101124.16;5041650;28;45415;-50
2022/01/08 03:01:46;;;;;;;;;1.00;1.00;;;;;6.54;62.93;101130.22;5041192;28;45240;-48
2022/01/08 03:04:13;;;;;;;;;2.00;2.00;;;;;6.53;62.76;101157.19;5041389;28;45463;-52
2022/01/08 03:06:38;;;;;;;;;2.50;1.00;;;;;6.48;62.94;101170.22;5041436;28;45381;-51
2022/01/08 03:09:04;;;;;;;;;1.00;1.00;;;;;6.49;62.83;101166.72;5041277;28;45318;-53
2022/01/08 03:11:30;;;;;;;;;3.00;2.00;;;;;6.43;62.90;101153.66;5041112;28;46249;-51
2022/01/08 03:13:55;;;;;;;;;2.00;2.00;;;;;6.43;62.87;101161.47;5041181;28;45300;-52
2022/01/08 03:16:21;;;;;;;;;3.00;3.00;;;;;6.39;62.82;101162.28;5041460;28;45640;-51
2022/01/08 03:18:48;;;;;;;;;2.75;1.00;;;;;6.37;63.02;101162.28;5041060;28;45619;-51
2022/01/08 03:21:17;;;;;;;;;3.75;2.50;;;;;6.37;62.82;101154.44;5056049;28;47109;-51
2022/01/08 03:23:51;;;;;;;;;2.75;2.50;;;;;6.37;62.95;101140.53;5040928;28;45344;-52
2022/01/08 03:26:18;;;;;;;;;1.00;1.00;;;;;6.37;62.92;101137.91;5041009;28;45364;-52
2022/01/08 03:28:44;;;;;;;;;3.00;3.00;;;;;6.35;62.98;101132.66;5041007;28;45451;-50
2022/01/08 03:31:12;;;;;;;;;2.25;2.00;;;;;6.38;62.83;101137.03;5022792;28;46230;-51
2022/01/08 03:33:37;;;;;;;;;1.75;1.00;;;;;6.38;62.92;101129.19;5040806;28;45315;-47
2022/01/08 03:36:03;;;;;;;;;2.00;2.00;;;;;6.38;62.76;101132.69;5040861;28;45452;-51
2022/01/08 03:38:30;;;;;;;;;5.25;2.25;;;;;6.38;62.94;101131.81;5041156;28;45303;-48
2022/01/08 03:40:55;;;;;;;;;2.50;2.50;;;;;6.31;62.95;101121.34;5040484;28;45439;-51
2022/01/08 03:43:20;;;;;;;;;2.75;2.00;;;;;6.28;63.08;101134.34;5040612;28;45427;-50
2022/01/08 03:45:46;;;;;;;;;2.50;2.25;;;;;6.26;63.09;101137.81;5054191;28;45304;-49
2022/01/08 03:50:56;;;;;;;;;1.00;1.00;;;;;6.17;62.98;101144.66;5046969;28;45440;-48
2022/01/08 03:53:22;;;;;;;;;1.75;1.00;;;;;6.15;63.17;101150.72;5047974;28;45238;-48
2022/01/08 03:55:47;;;;;;;;;1.00;1.00;;;;;6.12;63.13;101150.72;5040513;28;45356;-52
2022/01/08 03:58:13;;;;;;;;;1.00;0.00;;;;;6.09;63.15;101148.03;5040588;28;45475;-49
2022/01/08 04:00:38;;;;;;;;;1.25;1.00;;;;;6.07;63.05;101149.78;5040467;28;46073;-50
2022/01/08 04:03:03;;;;;;;;;2.75;2.00;;;;;6.05;63.17;101138.44;5040310;28;45304;-49
2022/01/08 04:05:29;;;;;;;;;0.25;0.25;;;;;6.03;63.00;101138.44;5040440;28;45312;-49
2022/01/08 04:07:54;;;;;;;;;2.00;2.00;;;;;6.03;62.90;101140.19;5039681;28;45336;-50
2022/01/08 04:10:20;;;;;;;;;1.00;1.00;;;;;6.03;63.02;101134.97;5039669;28;45420;-50
2022/01/08 04:12:50;;;;;;;;;2.00;2.00;;;;;6.01;62.95;101137.53;5067025;28;45390;-48
2022/01/08 04:15:37;;;;;;;;;3.00;2.00;;;;;5.98;63.13;101132.25;5042623;28;45211;-50
2022/01/08 04:18:03;;;;;;;;;1.25;1.00;;;;;5.98;62.96;101142.69;5042956;28;45445;-50
2022/01/08 04:20:29;;;;;;;;;1.00;1.00;;;;;5.95;63.15;101153.97;5029941;28;47079;-50
2022/01/08 04:22:55;;;;;;;;;1.75;1.75;;;;;5.94;63.22;101157.44;5053654;28;45381;-51
2022/01/08 04:25:23;;;;;;;;;2.00;2.00;;;;;5.94;63.11;101146.13;5045316;28;45405;-49
2022/01/08 04:27:48;;;;;;;;;3.00;2.00;;;;;5.91;63.17;101146.97;5055899;28;45332;-50
2022/01/08 04:30:14;;;;;;;;;2.00;2.00;;;;;5.92;63.15;101140.00;5039977;28;46159;-51
2022/01/08 04:32:40;;;;;;;;;2.50;2.00;;;;;5.87;63.18;101147.78;5040116;28;45301;-50
2022/01/08 04:35:05;;;;;;;;;1.25;1.00;;;;;5.86;63.26;101148.63;5039897;28;45696;-50
2022/01/08 04:37:31;;;;;;;;;2.00;2.00;;;;;5.85;63.10;101132.13;5039913;28;45487;-49
2022/01/08 04:39:56;;;;;;;;;4.00;2.00;;;;;5.82;63.01;101133.81;5039766;28;45412;-51
2022/01/08 04:42:22;;;;;;;;;1.75;1.75;;;;;5.81;62.97;101138.16;5039825;28;45415;-50
2022/01/08 04:44:47;;;;;;;;;5.00;2.00;;;;;5.83;63.20;101139.03;5056923;28;45385;-51
2022/01/08 04:47:13;;;;;;;;;3.00;3.00;;;;;5.81;63.24;101140.78;5062978;28;45418;-51
2022/01/08 04:49:38;;;;;;;;;2.75;2.75;;;;;5.78;63.15;101129.44;5056316;28;46112;-52
2022/01/08 04:52:04;;;;;;;;;4.75;3.75;;;;;5.77;63.30;101131.13;5036242;28;45499;-50
2022/01/08 04:54:29;;;;;;;;;2.00;2.00;;;;;5.77;63.16;101138.97;5039660;28;45402;-49
2022/01/08 04:56:55;;;;;;;;;2.25;2.00;;;;;5.77;63.28;101141.56;5039697;28;45463;-51
2022/01/08 04:59:20;;;;;;;;;1.00;1.00;;;;;5.78;63.04;101151.16;5039735;28;46237;-51
2022/01/08 05:01:46;;;;;;;;;1.00;1.00;;;;;5.76;63.31;101158.09;5021527;28;45408;-48
2022/01/08 05:04:11;;;;;;;;;2.25;2.00;;;;;5.75;63.33;101168.50;5039693;28;45301;-51
2022/01/08 05:06:36;;;;;;;;;3.00;1.75;;;;;5.74;63.44;101164.16;5039462;28;45348;-50
2022/01/08 05:09:03;;;;;;;;;3.00;1.75;;;;;5.72;63.31;101174.53;5039509;28;45298;-51
2022/01/08 05:11:29;;;;;;;;;2.00;2.00;;;;;5.73;63.33;101167.63;5051732;28;45238;-52
2022/01/08 05:13:55;;;;;;;;;2.00;2.00;;;;;5.73;63.45;101167.63;5041332;28;45341;-51
2022/01/08 05:16:21;;;;;;;;;3.25;2.00;;;;;5.69;63.48;101158.88;5043411;28;45657;-50
2022/01/08 05:18:49;;;;;;;;;2.00;1.00;;;;;5.69;63.47;101177.13;5048971;28;45419;-52
2022/01/08 05:21:24;;;;;;;;;1.00;1.00;;;;;5.64;63.62;101176.19;5061914;28;45316;-52
2022/01/08 05:23:49;;;;;;;;;2.00;1.00;;;;;5.64;63.53;101157.94;5046179;28;45349;-50
2022/01/08 05:26:15;;;;;;;;;2.75;2.50;;;;;5.61;63.81;101148.34;5077926;28;45328;-51
2022/01/08 05:28:41;;;;;;;;;2.75;1.75;;;;;5.62;63.83;101159.66;5054782;28;46549;-52
2022/01/08 05:31:07;;;;;;;;;2.00;2.00;;;;;5.63;63.62;101167.47;5055309;28;45367;-47
2022/01/08 05:33:32;;;;;;;;;2.50;2.00;;;;;5.64;63.70;101164.03;5053168;28;45409;-52
2022/01/08 05:35:58;;;;;;;;;7.25;2.00;;;;;5.67;63.94;101171.00;5059321;28;45217;-49
2022/01/08 05:38:23;;;;;;;;;2.75;2.00;;;;;5.68;63.74;101160.59;5045767;28;45420;-52
2022/01/08 05:40:49;;;;;;;;;3.00;2.75;;;;;5.70;63.73;101158.03;5045938;28;45279;-51
2022/01/08 05:43:14;;;;;;;;;2.25;2.00;;;;;5.71;63.77;101149.34;5045782;28;45494;-49
2022/01/08 05:45:39;;;;;;;;;2.00;2.00;;;;;5.74;63.76;101143.28;5059282;28;45174;-50
2022/01/08 05:48:05;;;;;;;;;4.25;2.25;;;;;5.76;63.92;101145.06;5045547;28;45700;-48
2022/01/08 05:50:31;;;;;;;;;3.50;2.75;;;;;5.78;64.04;101145.94;5048737;28;45340;-47
2022/01/08 05:52:56;;;;;;;;;2.00;2.00;;;;;5.79;63.79;101141.63;5056417;28;45182;-51
2022/01/08 05:55:22;;;;;;;;;3.50;3.00;;;;;5.84;64.03;101139.94;5045730;28;45436;-49
2022/01/08 05:57:47;;;;;;;;;3.00;3.00;;;;;5.85;63.86;101139.09;5027732;28;46957;-51
2022/01/08 06:00:13;;;;;;;;;2.00;2.00;;;;;5.91;64.08;101126.13;5045470;28;45404;-52
2022/01/08 06:02:38;;;;;;;;;4.75;3.50;;;;;5.92;63.94;101127.84;5045580;28;45415;-52
2022/01/08 06:05:07;;;;;;;;;9.75;7.00;;;;;5.95;64.10;101132.22;5045360;28;45392;-51
2022/01/08 06:07:33;;;;;;;;;7.50;7.50;;;;;5.99;63.83;101124.47;5023940;28;48323;-50
2022/01/08 06:09:59;;;;;;;;;3.25;2.25;;;;;6.02;63.90;101128.84;5032146;28;45376;-52
2022/01/08 06:12:24;;;;;;;;;2.50;2.50;;;;;6.05;63.92;101133.22;5055304;28;45490;-49
2022/01/08 06:14:50;;;;;;;;;1.25;1.25;;;;;6.07;64.05;101139.34;5028463;28;45416;-50
2022/01/08 06:17:15;;;;;;;;;3.00;3.00;;;;;6.09;64.04;101135.91;5025495;28;46286;-49
2022/01/08 06:19:40;;;;;;;;;2.00;1.50;;;;;6.08;64.14;101139.34;5029450;28;45432;-48
2022/01/08 06:22:06;;;;;;;;;1.00;1.00;;;;;6.15;64.25;101150.72;5035329;28;45727;-50
2022/01/08 06:24:31;;;;;;;;;1.25;1.25;;;;;6.17;64.11;101144.66;5025271;28;45406;-51
2022/01/08 06:26:57;;;;;;;;;2.00;1.75;;;;;6.18;64.06;101135.97;5041920;28;46018;-51
2022/01/08 06:29:22;;;;;;;;;2.00;2.00;;;;;6.22;63.89;101129.06;5035707;28;45639;-51
2022/01/08 06:31:48;;;;;;;;;3.50;2.50;;;;;6.24;64.07;101126.47;5047344;28;45385;-49
2022/01/08 06:34:13;;;;;;;;;3.25;2.75;;;;;6.22;64.32;101108.19;5021781;28;45406;-49
2022/01/08 06:36:39;;;;;;;;;3.75;1.00;;;;;6.24;64.28;101108.19;5021938;28;45320;-49
2022/01/08 06:39:04;;;;;;;;;2.50;2.00;;;;;6.25;64.38;101117.78;5020362;28;45659;-48
2022/01/08 06:41:29;;;;;;;;;4.00;2.00;;;;;6.26;64.42;101112.56;5021933;28;45635;-49
2022/01/08 06:43:56;;;;;;;;;3.00;1.00;;;;;6.28;64.37;101110.00;5023077;28;45359;-48
2022/01/08 06:46:22;;;;;;;;;2.25;2.25;;;;;6.29;64.10;101127.38;5050042;28;46119;-50
2022/01/08 06:48:48;;;;;;;;;1.00;1.00;;;;;6.29;64.40;101119.53;5045089;28;45449;-52
2022/01/08 06:51:13;;;;;;;;;3.25;2.00;;;;;6.26;64.27;101112.56;5037662;28;45276;-49
2022/01/08 06:53:39;;;;;;;;;6.75;1.75;;;;;6.26;64.36;101104.72;5026441;28;45543;-49
2022/01/08 06:56:04;;;;;;;;;1.50;1.00;;;;;6.23;64.43;101102.09;5021738;28;45274;-49
2022/01/08 06:58:30;;;;;;;;;2.00;2.00;;;;;6.24;64.37;101100.34;5049810;28;45197;-52
2022/01/08 07:00:56;;;;;;;;;1.25;1.25;;;;;6.23;64.55;101112.53;5033247;28;45296;-52
2022/01/08 07:03:21;;;;;;;;;3.00;3.00;;;;;6.24;64.62;101103.88;5036481;28;45543;-52
2022/01/08 07:05:46;;;;;;;;;3.00;2.00;;;;;6.27;64.32;101108.22;5025542;28;45427;-48
2022/01/08 07:08:12;;;;;;;;;3.75;1.00;;;;;6.25;64.57;101107.34;5041001;28;45373;-51
2022/01/08 07:10:37;;;;;;;;;3.75;2.75;;;;;6.27;64.48;101108.22;5043790;28;45363;-52
2022/01/08 07:13:03;;;;;;;;;5.00;1.00;;;;;6.24;64.70;101102.97;5057670;28;45491;-51
2022/01/08 07:15:28;;;;;;;;;1.75;1.00;;;;;6.23;64.80;101102.09;5046511;28;45415;-50
2022/01/08 07:17:54;;;;;;;;;1.25;1.25;;;;;6.28;64.69;101102.16;5046463;28;45336;-53
2022/01/08 07:20:19;;;;;;;;;0.00;0.00;;;;;6.29;64.50;101098.66;5050657;28;45508;-50
2022/01/08 07:22:45;;;;;;;;;1.25;1.25;;;;;6.32;64.72;101098.72;5048679;28;45379;-50
2022/01/08 07:25:11;;;;;;;;;3.25;2.00;;;;;6.33;64.51;101090.03;5048479;28;46939;-53
2022/01/08 07:27:37;;;;;;;;;3.00;2.00;;;;;6.30;64.73;101083.03;5049716;28;45581;-50
2022/01/08 07:30:05;;;;;;;;;1.75;1.50;;;;;6.33;64.70;101082.19;5050233;28;45452;-49
2022/01/08 07:32:31;;;;;;;;;2.75;1.50;;;;;6.36;64.68;101082.19;5040743;28;45361;-51
2022/01/08 07:34:57;;;;;;;;;3.25;1.75;;;;;6.38;64.59;101075.25;5049085;28;45345;-51
2022/01/08 07:37:22;;;;;;;;;2.00;2.00;;;;;6.39;64.74;101066.59;5048912;28;45464;-51
2022/01/08 07:39:48;;;;;;;;;1.00;1.00;;;;;6.40;64.82;101057.91;5047880;28;45559;-50
2022/01/08 07:42:13;;;;;;;;;1.00;1.00;;;;;6.39;65.08;101045.69;5036012;28;45530;-52
2022/01/08 07:44:42;;;;;;;;;3.00;1.00;;;;;6.41;64.89;101049.16;5048372;28;45314;-51
2022/01/08 07:47:07;;;;;;;;;2.00;2.00;;;;;6.47;64.79;101041.38;5046056;28;45307;-51
2022/01/08 07:49:33;;;;;;;;;1.75;1.75;;;;;6.49;64.96;101038.78;5040518;28;45483;-50
2022/01/08 07:51:58;;;;;;;;;2.25;1.00;;;;;6.50;64.92;101048.38;5054477;28;45562;-52
2022/01/08 07:54:24;;;;;;;;;2.00;2.00;;;;;6.50;65.16;101037.94;5040505;28;45919;-53
2022/01/08 07:56:49;;;;;;;;;3.75;1.25;;;;;6.53;64.94;101047.50;5040421;28;45589;-52
2022/01/08 07:59:14;;;;;;;;;3.50;1.00;;;;;6.52;65.16;101048.41;5040722;28;45404;-50
2022/01/08 08:01:40;;;;;;;;;2.75;2.75;;;;;6.54;64.98;101041.44;5040103;28;45394;-52
2022/01/08 08:04:06;;;;;;;;;2.50;1.75;;;;;6.58;65.09;101046.69;5040097;28;45348;-53
2022/01/08 08:06:32;;;;;;;;;4.50;2.00;;;;;6.62;65.00;101045.84;5040079;28;45451;-52
2022/01/08 08:08:57;;;;;;;;;3.75;1.75;;;;;6.65;65.11;101037.16;5040300;28;45499;-48
2022/01/08 08:11:23;;;;;;;;;2.00;0.00;;;;;6.67;65.10;101025.00;5039830;28;45296;-50
2022/01/08 08:13:48;;;;;;;;;2.00;2.00;;;;;6.71;64.88;101018.91;5040142;28;45306;-52
2022/01/08 08:16:13;;;;;;;;;3.00;1.00;;;;;6.74;65.12;101011.13;5039988;28;45324;-51
2022/01/08 08:18:39;;;;;;;;;2.00;2.00;;;;;6.71;65.45;101012.84;5040163;28;45379;-51
2022/01/08 08:21:04;;;;;;;;;3.25;1.50;;;;;6.77;65.04;101002.44;5037622;28;45432;-50
2022/01/08 08:23:29;;;;;;;;;7.25;3.25;;;;;6.79;65.39;101014.63;5051745;28;46097;-51
2022/01/08 08:25:55;;;;;;;;;3.00;3.00;;;;;6.81;65.52;100997.22;5028940;28;45506;-52
2022/01/08 08:28:20;;;;;;;;;4.25;3.25;;;;;6.80;65.63;100997.22;5051879;28;45661;-53
2022/01/08 08:30:46;;;;;;;;;4.75;3.00;;;;;6.88;65.69;101000.75;5039786;28;45309;-52
2022/01/08 08:33:12;;;;;;;;;5.50;3.75;;;;;6.89;65.80;100996.38;5039628;28;46090;-52
2022/01/08 08:35:38;;;;;;;;;9.75;4.00;;;;;6.92;65.65;100994.66;5038482;28;45345;-53
2022/01/08 08:38:03;;;;;;;;;5.50;4.25;;;;;6.94;65.85;100987.72;5039983;28;45274;-51
2022/01/08 08:40:29;;;;;;;;;5.25;4.50;;;;;6.95;66.11;100991.19;5039409;28;45222;-53
2022/01/08 08:42:54;;;;;;;;;4.75;4.75;;;;;7.00;65.89;100986.84;5042580;28;46245;-51
2022/01/08 08:45:20;;;;;;;;;4.50;4.25;;;;;7.04;65.94;100980.75;5052469;28;45446;-52
2022/01/08 08:47:46;;;;;;;;;4.75;4.75;;;;;7.09;66.12;100981.66;5039770;28;45320;-52
2022/01/08 08:50:13;;;;;;;;;10.00;4.00;;;;;7.11;66.15;100972.09;5040047;28;45286;-51
2022/01/08 08:52:39;;;;;;;;;4.50;4.00;;;;;7.11;66.28;100974.69;5039711;28;45380;-48
2022/01/08 08:55:06;;;;;;;;;5.00;4.25;;;;;7.11;66.51;100966.88;5038607;28;45309;-52
2022/01/08 08:57:31;;;;;;;;;8.00;5.00;;;;;7.14;66.20;100966.91;5039142;28;45551;-50
2022/01/08 08:59:56;;;;;;;;;7.25;4.00;;;;;7.13;66.48;100952.06;5036148;28;45560;-53
2022/01/08 09:02:22;;;;;;;;;9.25;3.75;;;;;7.15;66.68;100957.28;5022092;28;45419;-51
2022/01/08 09:04:49;;;;;;;;;6.50;5.50;;;;;7.23;66.67;100947.75;5039247;28;45490;-50
2022/01/08 09:07:14;;;;;;;;;10.00;8.00;;;;;7.24;66.71;100949.47;5039639;28;45454;-52
2022/01/08 09:09:40;;;;;;;;;11.25;7.25;;;;;7.32;66.38;100949.53;5048897;28;45516;-53
2022/01/08 09:12:06;;;;;;;;;11.00;7.50;;;;;7.38;66.37;100952.13;5072948;28;45912;-53
2022/01/08 09:14:32;;;;;;;;;9.50;8.50;;;;;7.38;66.66;100946.88;5049056;28;45222;-53
2022/01/08 09:17:03;;;;;;;;;10.00;8.00;;;;;7.43;66.66;100952.13;5052374;28;45546;-53
2022/01/08 09:19:29;;;;;;;;;9.00;8.50;;;;;7.44;66.57;100941.69;5023819;28;45688;-53
2022/01/08 09:21:55;;;;;;;;;10.75;8.50;;;;;7.46;66.73;100947.78;5058580;28;46622;-54
2022/01/08 09:24:21;;;;;;;;;9.25;8.00;;;;;7.49;66.28;100945.16;5044482;28;45494;-53
2022/01/08 09:26:48;;;;;;;;;17.25;11.00;;;;;7.51;66.87;100937.34;5039336;28;45278;-54
2022/01/08 09:29:15;;;;;;;;;19.00;15.50;;;;;7.52;66.86;100927.75;5039151;28;45352;-51
2022/01/08 09:31:40;;;;;;;;;10.25;9.75;;;;;7.53;66.87;100914.66;5038877;28;45424;-53
2022/01/08 09:34:07;;;;;;;;;6.50;6.50;;;;;7.55;66.82;100909.47;5038738;28;45370;-50
2022/01/08 09:36:32;;;;;;;;;10.00;10.00;;;;;7.57;67.18;100920.78;5039440;28;45384;-54
2022/01/08 09:38:59;;;;;;;;;6.00;6.00;;;;;7.58;67.03;100905.09;5037548;28;45525;-51
2022/01/08 09:41:24;;;;;;;;;12.00;10.00;;;;;7.64;66.90;100922.53;5039046;28;45312;-56
2022/01/08 09:43:50;;;;;;;;;16.50;11.00;;;;;7.62;67.17;100919.94;5039352;28;45242;-53
2022/01/08 09:46:16;;;;;;;;;8.75;8.75;;;;;7.65;67.27;100906.84;5052120;28;45257;-51
2022/01/08 09:48:45;;;;;;;;;14.75;12.00;;;;;7.67;67.46;100905.97;5037499;28;45193;-54
2022/01/08 09:51:10;;;;;;;;;20.00;12.25;;;;;7.71;67.58;100897.25;5047139;28;46079;-52
2022/01/08 09:53:36;;;;;;;;;12.25;11.75;;;;;7.75;67.29;100899.88;5044246;28;45320;-53
2022/01/08 09:56:03;;;;;;;;;12.75;10.75;;;;;7.80;67.40;100905.97;5038131;28;45451;-48
2022/01/08 09:58:29;;;;;;;;;17.75;12.75;;;;;7.80;67.53;100895.50;5028193;28;45575;-49
2022/01/08 10:00:54;;;;;;;;;13.75;11.25;;;;;7.84;67.62;100885.06;5050737;28;45437;-57
2022/01/08 10:03:21;;;;;;;;;13.00;11.00;;;;;7.84;67.58;100880.69;5061567;28;45403;-57
2022/01/08 10:05:50;;;;;;;;;19.75;17.75;;;;;7.87;67.56;100882.44;5052115;28;45297;-55
2022/01/08 10:08:21;;;;;;;;;16.75;11.00;;;;;7.93;67.52;100871.94;5061542;28;45433;-56
2022/01/08 10:11:03;;;;;;;;;15.00;12.25;;;;;7.92;67.58;100860.63;5063247;28;45256;-56
2022/01/08 10:13:33;;;;;;;;;13.25;11.50;;;;;7.93;67.82;100856.25;5050416;28;45225;-55
2022/01/08 10:18:45;;;;;;;;;13.50;7.75;;;;;7.96;68.11;100835.28;5054586;28;45285;-54
2022/01/08 10:21:25;;;;;;;;;9.50;9.25;;;;;7.98;68.19;100837.03;5049963;28;45349;-55
2022/01/08 10:23:56;;;;;;;;;10.00;8.00;;;;;8.00;68.32;100823.09;5061896;28;45274;-57
2022/01/08 10:26:30;;;;;;;;;13.75;11.00;;;;;8.02;68.19;100831.81;5061931;28;45316;-56
2022/01/08 10:28:58;;;;;;;;;9.75;9.00;;;;;8.05;68.51;100830.06;5062220;28;45308;-57
2022/01/08 10:31:27;;;;;;;;;13.00;10.75;;;;;8.16;68.21;100826.53;5066333;28;46149;-56
2022/01/08 10:33:53;;;;;;;;;11.00;9.25;;;;;8.21;68.47;100824.78;5049830;28;45415;-53
2022/01/08 10:36:28;;;;;;;;;14.25;11.00;;;;;8.21;68.62;100822.16;5041406;28;45391;-53
2022/01/08 10:38:55;;;;;;;;;15.75;12.50;;;;;8.26;68.51;100812.53;5060537;28;45587;-58
2022/01/08 10:41:22;;;;;;;;;13.50;11.50;;;;;8.33;68.63;100819.50;5049927;28;45374;-55
2022/01/08 10:44:03;;;;;;;;;12.00;9.75;;;;;8.37;68.36;100804.66;5046932;28;45305;-54
2022/01/08 10:46:28;;;;;;;;;15.75;13.25;;;;;8.40;68.60;100805.53;5058887;28;45985;-53
2022/01/08 10:48:53;;;;;;;;;12.25;12.00;;;;;8.44;68.68;100802.00;5033652;28;45384;-55
2022/01/08 10:51:26;;;;;;;;;13.25;10.50;;;;;8.48;68.70;100792.41;5049024;28;45440;-54
2022/01/08 10:54:16;;;;;;;;;10.25;9.00;;;;;8.52;68.63;100786.28;5050885;28;45443;-57
2022/01/08 10:56:45;;;;;;;;;11.50;8.75;;;;;8.53;68.75;100776.66;5052598;28;45463;-50
2022/01/08 10:59:20;;;;;;;;;14.50;12.00;;;;;8.58;68.78;100774.91;5051086;28;45438;-47
2022/01/08 11:02:17;;;;;;;;;11.25;10.50;;;;;8.60;69.03;100770.50;5033512;28;46410;-48
2022/01/08 11:04:46;;;;;;;;;14.25;10.50;;;;;8.64;68.77;100751.31;5049561;28;45290;-49
2022/01/08 11:07:32;;;;;;;;;19.00;15.50;;;;;8.67;69.04;100743.41;5041328;28;45336;-46
2022/01/08 11:10:06;;;;;;;;;14.25;9.00;;;;;8.71;69.21;100745.13;5041142;28;45447;-49
2022/01/08 11:12:37;;;;;;;;;14.25;10.00;;;;;8.70;69.26;100721.56;5041287;28;46078;-44
2022/01/08 11:17:55;;;;;;;;;11.75;7.75;;;;;8.72;69.23;100706.72;5040708;28;45266;-45
2022/01/08 11:20:25;;;;;;;;;11.50;8.75;;;;;8.75;69.11;100697.09;5050958;28;45495;-48
2022/01/08 11:22:56;;;;;;;;;14.75;10.50;;;;;8.79;69.26;100690.03;5057253;28;46372;-47
2022/01/08 11:25:24;;;;;;;;;8.50;7.25;;;;;8.83;69.20;100681.28;5051037;28;45397;-43
2022/01/08 11:27:59;;;;;;;;;10.50;10.00;;;;;8.86;69.39;100677.78;5043759;28;45507;-43
2022/01/08 11:30:33;;;;;;;;;5.50;5.25;;;;;8.86;69.24;100676.00;5044869;28;45409;-44
2022/01/08 11:33:05;;;;;;;;;13.75;7.00;;;;;8.91;69.35;100665.50;5049993;28;45924;-49
2022/01/08 11:35:32;;;;;;;;;6.75;6.00;;;;;8.93;69.45;100661.09;5048233;28;45321;-46
2022/01/08 11:38:02;;;;;;;;;14.50;7.25;;;;;8.94;69.58;100648.00;5041803;28;45421;-45
2022/01/08 11:40:29;;;;;;;;;7.75;6.75;;;;;9.00;69.39;100657.56;5040710;28;45452;-47
2022/01/08 11:42:59;;;;;;;;;6.75;5.00;;;;;9.02;69.25;100642.69;5040697;28;45268;-43
2022/01/08 11:45:29;;;;;;;;;13.50;9.25;;;;;9.02;69.45;100637.44;5049164;28;45433;-46
2022/01/08 11:47:57;;;;;;;;;15.00;9.25;;;;;9.04;69.28;100635.69;5050322;28;45471;-43
2022/01/08 11:50:28;;;;;;;;;11.50;10.50;;;;;9.05;69.43;100626.06;5046039;28;45519;-45
2022/01/08 11:53:24;;;;;;;;;7.50;6.50;;;;;9.08;69.53;100599.81;5050325;28;45616;-46
2022/01/08 11:55:54;;;;;;;;;12.25;6.50;;;;;9.05;69.71;100590.22;5034872;28;45597;-45
2022/01/08 11:58:26;;;;;;;;;12.00;6.50;;;;;9.11;69.86;100586.69;5030612;28;45436;-44